sensor_id;sensor_type;location;lat;lon;timestamp;P1;durP1;ratioP1;P2;durP2;ratioP2
13872;SDS011;7006;51.494;11.964;2024-03-06T00:01:52;24.23;;;16.90;;
13872;SDS011;7006;51.494;11.964;2024-03-06T00:04:21;24.50;;;16.73;;
13872;SDS011;7006;51.494;11.964;2024-03-06T00:06:49;25.40;;;16.70;;
13872;SDS011;7006;51.494;11.964;2024-03-06T00:09:19;26.07;;;18.10;;
13872;SDS011;7006;51.494;11.964;2024-03-06T00:11:49;25.87;;;17.37;;
13872;SDS011;7006;51.494;11.964;2024-03-06T00:14:18;24.97;;;17.50;;
13872;SDS011;7006;51.494;11.964;2024-03-06T00:16:47;29.07;;;17.50;;
13872;SDS011;7006;51.494;11.964;2024-03-06T00:19:15;27.87;;;18.13;;
13872;SDS011;7006;51.494;11.964;2024-03-06T00:21:43;28.77;;;16.87;;
13872;SDS011;7006;51.494;11.964;2024-03-06T00:24:11;26.47;;;17.90;;
13872;SDS011;7006;51.494;11.964;2024-03-06T00:26:40;28.20;;;17.87;;
13872;SDS011;7006;51.494;11.964;2024-03-06T00:29:12;28.10;;;18.23;;
13872;SDS011;7006;51.494;11.964;2024-03-06T00:31:42;26.87;;;18.53;;
13872;SDS011;7006;51.494;11.964;2024-03-06T00:34:10;30.07;;;18.00;;
13872;SDS011;7006;51.494;11.964;2024-03-06T00:36:39;26.63;;;19.23;;
13872;SDS011;7006;51.494;11.964;2024-03-06T00:39:07;28.90;;;17.80;;
13872;SDS011;7006;51.494;11.964;2024-03-06T00:41:35;31.27;;;19.80;;
13872;SDS011;7006;51.494;11.964;2024-03-06T00:44:04;25.57;;;16.70;;
13872;SDS011;7006;51.494;11.964;2024-03-06T00:46:36;28.17;;;18.00;;
13872;SDS011;7006;51.494;11.964;2024-03-06T00:49:04;28.73;;;18.33;;
13872;SDS011;7006;51.494;11.964;2024-03-06T00:51:32;26.10;;;18.30;;
13872;SDS011;7006;51.494;11.964;2024-03-06T00:54:02;29.97;;;18.47;;
13872;SDS011;7006;51.494;11.964;2024-03-06T00:56:30;28.60;;;18.33;;
13872;SDS011;7006;51.494;11.964;2024-03-06T00:58:58;23.60;;;17.80;;
13872;SDS011;7006;51.494;11.964;2024-03-06T01:01:27;26.00;;;18.67;;
13872;SDS011;7006;51.494;11.964;2024-03-06T01:03:57;27.13;;;18.50;;
13872;SDS011;7006;51.494;11.964;2024-03-06T01:06:26;28.70;;;19.70;;
13872;SDS011;7006;51.494;11.964;2024-03-06T01:08:54;29.10;;;18.80;;
13872;SDS011;7006;51.494;11.964;2024-03-06T01:11:23;26.60;;;18.37;;
13872;SDS011;7006;51.494;11.964;2024-03-06T01:13:51;28.27;;;19.20;;
13872;SDS011;7006;51.494;11.964;2024-03-06T01:16:20;27.83;;;18.77;;
13872;SDS011;7006;51.494;11.964;2024-03-06T01:18:48;25.53;;;18.17;;
13872;SDS011;7006;51.494;11.964;2024-03-06T01:21:19;29.60;;;18.27;;
13872;SDS011;7006;51.494;11.964;2024-03-06T01:23:47;28.33;;;18.50;;
13872;SDS011;7006;51.494;11.964;2024-03-06T01:26:15;30.70;;;19.23;;
13872;SDS011;7006;51.494;11.964;2024-03-06T01:28:43;31.57;;;17.97;;
13872;SDS011;7006;51.494;11.964;2024-03-06T01:31:11;28.50;;;19.33;;
13872;SDS011;7006;51.494;11.964;2024-03-06T01:33:40;29.47;;;19.53;;
13872;SDS011;7006;51.494;11.964;2024-03-06T01:36:08;29.83;;;19.63;;
13872;SDS011;7006;51.494;11.964;2024-03-06T01:38:38;29.40;;;19.23;;
13872;SDS011;7006;51.494;11.964;2024-03-06T01:41:07;28.30;;;18.13;;
13872;SDS011;7006;51.494;11.964;2024-03-06T01:43:36;33.37;;;19.00;;
13872;SDS011;7006;51.494;11.964;2024-03-06T01:46:06;32.83;;;19.30;;
13872;SDS011;7006;51.494;11.964;2024-03-06T01:48:34;26.57;;;18.90;;
13872;SDS011;7006;51.494;11.964;2024-03-06T01:51:03;28.03;;;18.80;;
13872;SDS011;7006;51.494;11.964;2024-03-06T01:53:32;24.77;;;17.50;;
13872;SDS011;7006;51.494;11.964;2024-03-06T01:56:04;25.97;;;17.67;;
13872;SDS011;7006;51.494;11.964;2024-03-06T01:58:36;30.70;;;18.90;;
13872;SDS011;7006;51.494;11.964;2024-03-06T02:01:05;30.13;;;18.70;;
13872;SDS011;7006;51.494;11.964;2024-03-06T02:03:33;30.03;;;19.57;;
13872;SDS011;7006;51.494;11.964;2024-03-06T02:06:02;30.20;;;20.30;;
13872;SDS011;7006;51.494;11.964;2024-03-06T02:08:30;25.73;;;18.50;;
13872;SDS011;7006;51.494;11.964;2024-03-06T02:10:58;26.23;;;18.53;;
13872;SDS011;7006;51.494;11.964;2024-03-06T02:13:30;26.27;;;18.00;;
13872;SDS011;7006;51.494;11.964;2024-03-06T02:15:58;27.00;;;17.37;;
13872;SDS011;7006;51.494;11.964;2024-03-06T02:18:27;27.87;;;20.20;;
13872;SDS011;7006;51.494;11.964;2024-03-06T02:20:57;28.77;;;18.60;;
13872;SDS011;7006;51.494;11.964;2024-03-06T02:23:26;29.27;;;18.70;;
13872;SDS011;7006;51.494;11.964;2024-03-06T02:25:54;29.87;;;18.03;;
13872;SDS011;7006;51.494;11.964;2024-03-06T02:28:22;27.90;;;18.10;;
13872;SDS011;7006;51.494;11.964;2024-03-06T02:30:50;24.77;;;16.33;;
13872;SDS011;7006;51.494;11.964;2024-03-06T02:33:19;27.03;;;17.90;;
13872;SDS011;7006;51.494;11.964;2024-03-06T02:35:47;29.17;;;18.47;;
13872;SDS011;7006;51.494;11.964;2024-03-06T02:38:18;33.27;;;18.27;;
13872;SDS011;7006;51.494;11.964;2024-03-06T02:40:46;27.07;;;17.77;;
13872;SDS011;7006;51.494;11.964;2024-03-06T02:43:14;34.07;;;19.70;;
13872;SDS011;7006;51.494;11.964;2024-03-06T02:45:42;26.70;;;18.30;;
13872;SDS011;7006;51.494;11.964;2024-03-06T02:48:11;28.23;;;18.73;;
13872;SDS011;7006;51.494;11.964;2024-03-06T02:50:39;30.97;;;20.63;;
13872;SDS011;7006;51.494;11.964;2024-03-06T02:53:07;26.90;;;18.50;;
13872;SDS011;7006;51.494;11.964;2024-03-06T02:55:38;29.10;;;18.20;;
13872;SDS011;7006;51.494;11.964;2024-03-06T02:58:06;28.90;;;19.50;;
13872;SDS011;7006;51.494;11.964;2024-03-06T03:00:34;30.90;;;18.43;;
13872;SDS011;7006;51.494;11.964;2024-03-06T03:03:03;29.17;;;18.97;;
13872;SDS011;7006;51.494;11.964;2024-03-06T03:05:31;29.83;;;19.83;;
13872;SDS011;7006;51.494;11.964;2024-03-06T03:07:59;28.13;;;19.10;;
13872;SDS011;7006;51.494;11.964;2024-03-06T03:10:29;30.20;;;19.67;;
13872;SDS011;7006;51.494;11.964;2024-03-06T03:12:59;31.00;;;20.53;;
13872;SDS011;7006;51.494;11.964;2024-03-06T03:15:29;27.23;;;18.07;;
13872;SDS011;7006;51.494;11.964;2024-03-06T03:17:58;29.23;;;19.77;;
13872;SDS011;7006;51.494;11.964;2024-03-06T03:20:26;29.17;;;19.70;;
13872;SDS011;7006;51.494;11.964;2024-03-06T03:22:54;28.17;;;18.40;;
13872;SDS011;7006;51.494;11.964;2024-03-06T03:25:22;29.63;;;20.23;;
13872;SDS011;7006;51.494;11.964;2024-03-06T03:27:51;30.80;;;19.53;;
13872;SDS011;7006;51.494;11.964;2024-03-06T03:30:22;31.30;;;19.13;;
13872;SDS011;7006;51.494;11.964;2024-03-06T03:32:50;33.00;;;20.07;;
13872;SDS011;7006;51.494;11.964;2024-03-06T03:35:19;28.17;;;20.00;;
13872;SDS011;7006;51.494;11.964;2024-03-06T03:37:50;28.90;;;20.83;;
13872;SDS011;7006;51.494;11.964;2024-03-06T03:40:18;28.60;;;19.10;;
13872;SDS011;7006;51.494;11.964;2024-03-06T03:42:48;31.83;;;21.17;;
13872;SDS011;7006;51.494;11.964;2024-03-06T03:45:16;29.00;;;20.23;;
13872;SDS011;7006;51.494;11.964;2024-03-06T03:47:47;36.60;;;21.00;;
13872;SDS011;7006;51.494;11.964;2024-03-06T03:50:15;29.80;;;20.50;;
13872;SDS011;7006;51.494;11.964;2024-03-06T03:52:44;28.80;;;19.80;;
13872;SDS011;7006;51.494;11.964;2024-03-06T03:55:12;29.33;;;19.80;;
13872;SDS011;7006;51.494;11.964;2024-03-06T03:57:40;34.93;;;20.87;;
13872;SDS011;7006;51.494;11.964;2024-03-06T04:00:09;31.40;;;21.73;;
13872;SDS011;7006;51.494;11.964;2024-03-06T04:02:38;33.60;;;20.63;;
13872;SDS011;7006;51.494;11.964;2024-03-06T04:05:09;32.67;;;21.60;;
13872;SDS011;7006;51.494;11.964;2024-03-06T04:07:38;33.43;;;22.00;;
13872;SDS011;7006;51.494;11.964;2024-03-06T04:10:06;29.37;;;20.70;;
13872;SDS011;7006;51.494;11.964;2024-03-06T04:12:36;36.70;;;20.97;;
13872;SDS011;7006;51.494;11.964;2024-03-06T04:15:06;32.63;;;21.57;;
13872;SDS011;7006;51.494;11.964;2024-03-06T04:17:35;34.17;;;21.40;;
13872;SDS011;7006;51.494;11.964;2024-03-06T04:20:06;32.70;;;20.90;;
13872;SDS011;7006;51.494;11.964;2024-03-06T04:22:39;36.43;;;21.63;;
13872;SDS011;7006;51.494;11.964;2024-03-06T04:25:08;33.37;;;22.27;;
13872;SDS011;7006;51.494;11.964;2024-03-06T04:27:36;30.77;;;20.97;;
13872;SDS011;7006;51.494;11.964;2024-03-06T04:30:05;29.87;;;19.87;;
13872;SDS011;7006;51.494;11.964;2024-03-06T04:32:34;38.47;;;20.90;;
13872;SDS011;7006;51.494;11.964;2024-03-06T04:35:03;33.33;;;20.50;;
13872;SDS011;7006;51.494;11.964;2024-03-06T04:37:32;30.50;;;21.90;;
13872;SDS011;7006;51.494;11.964;2024-03-06T04:40:03;36.90;;;22.70;;
13872;SDS011;7006;51.494;11.964;2024-03-06T04:42:32;32.60;;;21.67;;
13872;SDS011;7006;51.494;11.964;2024-03-06T04:45:01;33.50;;;21.57;;
13872;SDS011;7006;51.494;11.964;2024-03-06T04:47:30;36.60;;;22.53;;
13872;SDS011;7006;51.494;11.964;2024-03-06T04:49:59;39.37;;;21.97;;
13872;SDS011;7006;51.494;11.964;2024-03-06T04:52:27;40.23;;;23.30;;
13872;SDS011;7006;51.494;11.964;2024-03-06T04:54:55;36.23;;;23.10;;
13872;SDS011;7006;51.494;11.964;2024-03-06T04:57:26;36.07;;;23.97;;
13872;SDS011;7006;51.494;11.964;2024-03-06T04:59:54;34.40;;;22.17;;
13872;SDS011;7006;51.494;11.964;2024-03-06T05:02:23;37.20;;;22.40;;
13872;SDS011;7006;51.494;11.964;2024-03-06T05:04:51;36.50;;;23.70;;
13872;SDS011;7006;51.494;11.964;2024-03-06T05:07:19;36.70;;;23.13;;
13872;SDS011;7006;51.494;11.964;2024-03-06T05:09:48;36.60;;;22.40;;
13872;SDS011;7006;51.494;11.964;2024-03-06T05:12:16;40.80;;;25.47;;
13872;SDS011;7006;51.494;11.964;2024-03-06T05:14:47;35.47;;;23.27;;
13872;SDS011;7006;51.494;11.964;2024-03-06T05:17:15;42.43;;;24.13;;
13872;SDS011;7006;51.494;11.964;2024-03-06T05:19:43;41.27;;;29.57;;
13872;SDS011;7006;51.494;11.964;2024-03-06T05:22:12;39.50;;;26.73;;
13872;SDS011;7006;51.494;11.964;2024-03-06T05:24:41;37.20;;;25.57;;
13872;SDS011;7006;51.494;11.964;2024-03-06T05:27:09;38.73;;;26.07;;
13872;SDS011;7006;51.494;11.964;2024-03-06T05:29:41;40.47;;;26.77;;
13872;SDS011;7006;51.494;11.964;2024-03-06T05:32:12;44.17;;;29.03;;
13872;SDS011;7006;51.494;11.964;2024-03-06T05:34:41;45.13;;;28.20;;
13872;SDS011;7006;51.494;11.964;2024-03-06T05:37:09;44.90;;;30.20;;
13872;SDS011;7006;51.494;11.964;2024-03-06T05:39:37;42.93;;;27.07;;
13872;SDS011;7006;51.494;11.964;2024-03-06T05:42:07;40.97;;;26.17;;
13872;SDS011;7006;51.494;11.964;2024-03-06T05:44:35;44.43;;;24.40;;
13872;SDS011;7006;51.494;11.964;2024-03-06T05:47:04;37.23;;;23.87;;
13872;SDS011;7006;51.494;11.964;2024-03-06T05:49:34;39.47;;;25.90;;
13872;SDS011;7006;51.494;11.964;2024-03-06T05:52:03;41.30;;;24.10;;
13872;SDS011;7006;51.494;11.964;2024-03-06T05:54:31;38.83;;;24.30;;
13872;SDS011;7006;51.494;11.964;2024-03-06T05:57:00;36.33;;;23.30;;
13872;SDS011;7006;51.494;11.964;2024-03-06T05:59:29;40.60;;;24.20;;
13872;SDS011;7006;51.494;11.964;2024-03-06T06:01:57;41.70;;;24.53;;
13872;SDS011;7006;51.494;11.964;2024-03-06T06:04:25;38.27;;;24.33;;
13872;SDS011;7006;51.494;11.964;2024-03-06T06:06:56;40.33;;;23.80;;
13872;SDS011;7006;51.494;11.964;2024-03-06T06:09:24;36.37;;;24.93;;
13872;SDS011;7006;51.494;11.964;2024-03-06T06:11:52;38.97;;;23.53;;
13872;SDS011;7006;51.494;11.964;2024-03-06T06:14:20;38.97;;;24.63;;
13872;SDS011;7006;51.494;11.964;2024-03-06T06:16:49;39.50;;;25.13;;
13872;SDS011;7006;51.494;11.964;2024-03-06T06:19:17;39.30;;;24.47;;
13872;SDS011;7006;51.494;11.964;2024-03-06T06:21:45;34.77;;;23.13;;
13872;SDS011;7006;51.494;11.964;2024-03-06T06:24:16;36.97;;;23.30;;
13872;SDS011;7006;51.494;11.964;2024-03-06T06:26:44;38.97;;;23.77;;
13872;SDS011;7006;51.494;11.964;2024-03-06T06:29:13;38.70;;;22.93;;
13872;SDS011;7006;51.494;11.964;2024-03-06T06:31:42;44.80;;;25.83;;
13872;SDS011;7006;51.494;11.964;2024-03-06T06:34:10;36.97;;;23.20;;
13872;SDS011;7006;51.494;11.964;2024-03-06T06:36:38;39.73;;;24.10;;
13872;SDS011;7006;51.494;11.964;2024-03-06T06:39:07;39.10;;;24.87;;
13872;SDS011;7006;51.494;11.964;2024-03-06T06:41:39;41.23;;;24.73;;
13872;SDS011;7006;51.494;11.964;2024-03-06T06:44:08;45.10;;;26.00;;
13872;SDS011;7006;51.494;11.964;2024-03-06T06:46:36;37.53;;;23.67;;
13872;SDS011;7006;51.494;11.964;2024-03-06T06:49:07;42.30;;;25.13;;
13872;SDS011;7006;51.494;11.964;2024-03-06T06:51:36;39.97;;;24.80;;
13872;SDS011;7006;51.494;11.964;2024-03-06T06:54:04;39.13;;;24.50;;
13872;SDS011;7006;51.494;11.964;2024-03-06T06:56:32;37.53;;;23.33;;
13872;SDS011;7006;51.494;11.964;2024-03-06T06:59:03;35.43;;;23.50;;
13872;SDS011;7006;51.494;11.964;2024-03-06T07:01:31;36.87;;;24.60;;
13872;SDS011;7006;51.494;11.964;2024-03-06T07:04:00;37.40;;;23.50;;
13872;SDS011;7006;51.494;11.964;2024-03-06T07:06:29;34.20;;;23.30;;
13872;SDS011;7006;51.494;11.964;2024-03-06T07:08:58;36.83;;;24.90;;
13872;SDS011;7006;51.494;11.964;2024-03-06T07:11:26;36.23;;;22.83;;
13872;SDS011;7006;51.494;11.964;2024-03-06T07:13:54;40.37;;;23.33;;
13872;SDS011;7006;51.494;11.964;2024-03-06T07:16:25;35.37;;;22.70;;
13872;SDS011;7006;51.494;11.964;2024-03-06T07:18:53;38.90;;;23.50;;
13872;SDS011;7006;51.494;11.964;2024-03-06T07:21:23;50.43;;;28.00;;
13872;SDS011;7006;51.494;11.964;2024-03-06T07:23:51;40.97;;;25.20;;
13872;SDS011;7006;51.494;11.964;2024-03-06T07:26:19;35.77;;;23.30;;
13872;SDS011;7006;51.494;11.964;2024-03-06T07:28:48;35.83;;;23.80;;
13872;SDS011;7006;51.494;11.964;2024-03-06T07:31:19;36.37;;;23.27;;
13872;SDS011;7006;51.494;11.964;2024-03-06T07:33:51;34.77;;;23.53;;
13872;SDS011;7006;51.494;11.964;2024-03-06T07:36:20;35.57;;;24.90;;
13872;SDS011;7006;51.494;11.964;2024-03-06T07:38:48;37.80;;;25.50;;
13872;SDS011;7006;51.494;11.964;2024-03-06T07:41:16;39.73;;;24.30;;
13872;SDS011;7006;51.494;11.964;2024-03-06T07:43:45;32.90;;;23.50;;
13872;SDS011;7006;51.494;11.964;2024-03-06T07:46:13;33.40;;;23.97;;
13872;SDS011;7006;51.494;11.964;2024-03-06T07:48:42;36.57;;;23.97;;
13872;SDS011;7006;51.494;11.964;2024-03-06T07:51:13;34.63;;;24.67;;
13872;SDS011;7006;51.494;11.964;2024-03-06T07:53:41;32.37;;;23.97;;
13872;SDS011;7006;51.494;11.964;2024-03-06T07:56:10;39.17;;;25.00;;
13872;SDS011;7006;51.494;11.964;2024-03-06T07:58:39;34.93;;;24.40;;
13872;SDS011;7006;51.494;11.964;2024-03-06T08:01:07;35.03;;;23.90;;
13872;SDS011;7006;51.494;11.964;2024-03-06T08:03:38;35.63;;;25.87;;
13872;SDS011;7006;51.494;11.964;2024-03-06T08:06:08;35.17;;;25.43;;
13872;SDS011;7006;51.494;11.964;2024-03-06T08:08:39;35.67;;;24.70;;
13872;SDS011;7006;51.494;11.964;2024-03-06T08:11:09;33.57;;;24.20;;
13872;SDS011;7006;51.494;11.964;2024-03-06T08:13:38;34.57;;;24.20;;
13872;SDS011;7006;51.494;11.964;2024-03-06T08:16:06;39.63;;;25.43;;
13872;SDS011;7006;51.494;11.964;2024-03-06T08:18:36;36.00;;;23.97;;
13872;SDS011;7006;51.494;11.964;2024-03-06T08:21:04;38.77;;;24.50;;
13872;SDS011;7006;51.494;11.964;2024-03-06T08:23:33;41.07;;;26.10;;
13872;SDS011;7006;51.494;11.964;2024-03-06T08:26:04;34.10;;;23.97;;
13872;SDS011;7006;51.494;11.964;2024-03-06T08:28:32;36.20;;;25.87;;
13872;SDS011;7006;51.494;11.964;2024-03-06T08:31:02;33.07;;;25.00;;
13872;SDS011;7006;51.494;11.964;2024-03-06T08:33:33;36.97;;;26.13;;
13872;SDS011;7006;51.494;11.964;2024-03-06T08:36:01;34.37;;;26.10;;
13872;SDS011;7006;51.494;11.964;2024-03-06T08:38:29;32.40;;;25.17;;
13872;SDS011;7006;51.494;11.964;2024-03-06T08:40:58;35.57;;;24.57;;
13872;SDS011;7006;51.494;11.964;2024-03-06T08:43:28;36.27;;;25.43;;
13872;SDS011;7006;51.494;11.964;2024-03-06T08:45:57;35.83;;;25.80;;
13872;SDS011;7006;51.494;11.964;2024-03-06T08:48:25;32.60;;;24.87;;
13872;SDS011;7006;51.494;11.964;2024-03-06T08:50:53;34.07;;;25.30;;
13872;SDS011;7006;51.494;11.964;2024-03-06T08:53:21;34.20;;;25.00;;
13872;SDS011;7006;51.494;11.964;2024-03-06T08:55:50;35.93;;;26.97;;
13872;SDS011;7006;51.494;11.964;2024-03-06T08:58:18;35.17;;;25.30;;
13872;SDS011;7006;51.494;11.964;2024-03-06T09:00:49;37.73;;;25.87;;
13872;SDS011;7006;51.494;11.964;2024-03-06T09:03:17;34.23;;;26.53;;
13872;SDS011;7006;51.494;11.964;2024-03-06T09:05:45;35.73;;;26.30;;
13872;SDS011;7006;51.494;11.964;2024-03-06T09:08:14;34.00;;;26.43;;
13872;SDS011;7006;51.494;11.964;2024-03-06T09:10:42;34.57;;;25.50;;
13872;SDS011;7006;51.494;11.964;2024-03-06T09:13:10;35.23;;;26.30;;
13872;SDS011;7006;51.494;11.964;2024-03-06T09:15:38;34.40;;;25.50;;
13872;SDS011;7006;51.494;11.964;2024-03-06T09:18:09;35.30;;;25.93;;
13872;SDS011;7006;51.494;11.964;2024-03-06T09:20:37;30.97;;;25.07;;
13872;SDS011;7006;51.494;11.964;2024-03-06T09:23:05;32.70;;;25.60;;
13872;SDS011;7006;51.494;11.964;2024-03-06T09:25:34;35.33;;;26.73;;
13872;SDS011;7006;51.494;11.964;2024-03-06T09:28:02;37.97;;;26.80;;
13872;SDS011;7006;51.494;11.964;2024-03-06T09:30:33;32.90;;;26.00;;
13872;SDS011;7006;51.494;11.964;2024-03-06T09:33:02;36.33;;;27.33;;
13872;SDS011;7006;51.494;11.964;2024-03-06T09:35:34;39.20;;;28.57;;
13872;SDS011;7006;51.494;11.964;2024-03-06T09:38:02;42.80;;;28.77;;
13872;SDS011;7006;51.494;11.964;2024-03-06T09:40:31;37.67;;;28.73;;
13872;SDS011;7006;51.494;11.964;2024-03-06T09:42:59;46.07;;;30.37;;
13872;SDS011;7006;51.494;11.964;2024-03-06T09:45:27;42.03;;;29.33;;
13872;SDS011;7006;51.494;11.964;2024-03-06T09:47:55;40.27;;;29.13;;
13872;SDS011;7006;51.494;11.964;2024-03-06T09:50:24;38.80;;;30.97;;
13872;SDS011;7006;51.494;11.964;2024-03-06T09:52:56;40.00;;;28.87;;
13872;SDS011;7006;51.494;11.964;2024-03-06T09:55:25;38.63;;;27.47;;
13872;SDS011;7006;51.494;11.964;2024-03-06T09:57:53;45.10;;;29.33;;
13872;SDS011;7006;51.494;11.964;2024-03-06T10:00:21;39.80;;;26.30;;
13872;SDS011;7006;51.494;11.964;2024-03-06T10:02:54;39.90;;;28.50;;
13872;SDS011;7006;51.494;11.964;2024-03-06T10:05:24;43.73;;;29.70;;
13872;SDS011;7006;51.494;11.964;2024-03-06T10:07:55;44.03;;;29.40;;
13872;SDS011;7006;51.494;11.964;2024-03-06T10:10:24;38.10;;;29.53;;
13872;SDS011;7006;51.494;11.964;2024-03-06T10:12:52;52.00;;;29.37;;
13872;SDS011;7006;51.494;11.964;2024-03-06T10:15:22;46.40;;;31.03;;
13872;SDS011;7006;51.494;11.964;2024-03-06T10:17:51;41.70;;;29.53;;
13872;SDS011;7006;51.494;11.964;2024-03-06T10:20:20;42.57;;;30.17;;
13872;SDS011;7006;51.494;11.964;2024-03-06T10:22:49;49.90;;;29.10;;
13872;SDS011;7006;51.494;11.964;2024-03-06T10:25:21;40.30;;;28.87;;
13872;SDS011;7006;51.494;11.964;2024-03-06T10:28:03;39.33;;;28.87;;
13872;SDS011;7006;51.494;11.964;2024-03-06T10:30:33;41.30;;;31.43;;
13872;SDS011;7006;51.494;11.964;2024-03-06T10:33:02;39.37;;;27.90;;
13872;SDS011;7006;51.494;11.964;2024-03-06T10:35:31;36.13;;;28.50;;
13872;SDS011;7006;51.494;11.964;2024-03-06T10:38:00;41.87;;;28.43;;
13872;SDS011;7006;51.494;11.964;2024-03-06T10:40:33;41.60;;;28.77;;
13872;SDS011;7006;51.494;11.964;2024-03-06T10:43:03;37.90;;;29.33;;
13872;SDS011;7006;51.494;11.964;2024-03-06T10:45:34;41.63;;;29.50;;
13872;SDS011;7006;51.494;11.964;2024-03-06T10:48:09;44.70;;;30.67;;
13872;SDS011;7006;51.494;11.964;2024-03-06T10:50:39;45.43;;;29.53;;
13872;SDS011;7006;51.494;11.964;2024-03-06T10:53:09;41.80;;;28.13;;
13872;SDS011;7006;51.494;11.964;2024-03-06T10:55:42;37.17;;;28.07;;
13872;SDS011;7006;51.494;11.964;2024-03-06T10:58:12;42.53;;;28.20;;
13872;SDS011;7006;51.494;11.964;2024-03-06T11:00:41;38.03;;;28.70;;
13872;SDS011;7006;51.494;11.964;2024-03-06T11:03:11;38.03;;;27.30;;
13872;SDS011;7006;51.494;11.964;2024-03-06T11:05:42;38.07;;;26.43;;
13872;SDS011;7006;51.494;11.964;2024-03-06T11:08:12;34.70;;;26.40;;
13872;SDS011;7006;51.494;11.964;2024-03-06T11:10:44;35.77;;;26.30;;
13872;SDS011;7006;51.494;11.964;2024-03-06T11:13:22;37.33;;;27.43;;
13872;SDS011;7006;51.494;11.964;2024-03-06T11:15:51;31.97;;;24.77;;
13872;SDS011;7006;51.494;11.964;2024-03-06T11:24:12;45.53;;;29.40;;
13872;SDS011;7006;51.494;11.964;2024-03-06T11:26:44;40.83;;;28.60;;
13872;SDS011;7006;51.494;11.964;2024-03-06T11:29:18;35.30;;;25.70;;
13872;SDS011;7006;51.494;11.964;2024-03-06T11:31:56;39.77;;;27.33;;
13872;SDS011;7006;51.494;11.964;2024-03-06T11:34:27;37.27;;;26.90;;
13872;SDS011;7006;51.494;11.964;2024-03-06T11:36:56;38.50;;;28.23;;
13872;SDS011;7006;51.494;11.964;2024-03-06T11:39:28;38.23;;;27.70;;
13872;SDS011;7006;51.494;11.964;2024-03-06T11:42:02;40.37;;;27.13;;
13872;SDS011;7006;51.494;11.964;2024-03-06T11:44:33;40.43;;;28.77;;
13872;SDS011;7006;51.494;11.964;2024-03-06T11:47:02;37.77;;;29.40;;
13872;SDS011;7006;51.494;11.964;2024-03-06T11:49:34;39.83;;;27.33;;
13872;SDS011;7006;51.494;11.964;2024-03-06T11:52:03;40.50;;;28.43;;
13872;SDS011;7006;51.494;11.964;2024-03-06T11:54:33;37.67;;;27.13;;
13872;SDS011;7006;51.494;11.964;2024-03-06T11:57:04;36.93;;;28.33;;
13872;SDS011;7006;51.494;11.964;2024-03-06T11:59:33;38.80;;;28.60;;
13872;SDS011;7006;51.494;11.964;2024-03-06T12:02:04;38.03;;;28.93;;
13872;SDS011;7006;51.494;11.964;2024-03-06T12:04:35;37.73;;;29.63;;
13872;SDS011;7006;51.494;11.964;2024-03-06T12:07:03;39.30;;;29.43;;
13872;SDS011;7006;51.494;11.964;2024-03-06T12:09:34;35.90;;;29.23;;
13872;SDS011;7006;51.494;11.964;2024-03-06T12:12:07;42.63;;;30.60;;
13872;SDS011;7006;51.494;11.964;2024-03-06T12:14:36;50.70;;;30.40;;
13872;SDS011;7006;51.494;11.964;2024-03-06T12:17:04;43.53;;;32.40;;
13872;SDS011;7006;51.494;11.964;2024-03-06T12:19:33;42.00;;;33.70;;
13872;SDS011;7006;51.494;11.964;2024-03-06T12:22:03;50.30;;;36.70;;
13872;SDS011;7006;51.494;11.964;2024-03-06T12:24:31;39.93;;;31.83;;
13872;SDS011;7006;51.494;11.964;2024-03-06T12:27:00;40.07;;;29.43;;
13872;SDS011;7006;51.494;11.964;2024-03-06T12:29:32;38.30;;;30.27;;
13872;SDS011;7006;51.494;11.964;2024-03-06T12:32:01;39.20;;;28.37;;
13872;SDS011;7006;51.494;11.964;2024-03-06T12:34:30;42.10;;;28.33;;
13872;SDS011;7006;51.494;11.964;2024-03-06T12:37:07;36.87;;;25.60;;
13872;SDS011;7006;51.494;11.964;2024-03-06T12:39:35;36.40;;;26.27;;
13872;SDS011;7006;51.494;11.964;2024-03-06T12:42:04;36.70;;;26.00;;
13872;SDS011;7006;51.494;11.964;2024-03-06T12:44:35;33.57;;;26.10;;
13872;SDS011;7006;51.494;11.964;2024-03-06T12:47:04;30.13;;;24.27;;
13872;SDS011;7006;51.494;11.964;2024-03-06T12:50:00;32.33;;;23.20;;
13872;SDS011;7006;51.494;11.964;2024-03-06T12:52:32;28.33;;;21.53;;
13872;SDS011;7006;51.494;11.964;2024-03-06T12:55:01;31.10;;;24.07;;
13872;SDS011;7006;51.494;11.964;2024-03-06T12:57:30;31.73;;;21.97;;
13872;SDS011;7006;51.494;11.964;2024-03-06T13:00:01;26.90;;;20.27;;
13872;SDS011;7006;51.494;11.964;2024-03-06T13:02:32;29.00;;;19.97;;
13872;SDS011;7006;51.494;11.964;2024-03-06T13:05:00;27.63;;;19.20;;
13872;SDS011;7006;51.494;11.964;2024-03-06T13:07:28;24.60;;;19.03;;
13872;SDS011;7006;51.494;11.964;2024-03-06T13:09:57;24.50;;;18.77;;
13872;SDS011;7006;51.494;11.964;2024-03-06T13:12:26;23.00;;;17.37;;
13872;SDS011;7006;51.494;11.964;2024-03-06T13:14:54;27.97;;;20.50;;
13872;SDS011;7006;51.494;11.964;2024-03-06T13:17:25;25.13;;;20.03;;
13872;SDS011;7006;51.494;11.964;2024-03-06T13:19:54;25.40;;;20.23;;
13872;SDS011;7006;51.494;11.964;2024-03-06T13:22:22;23.47;;;19.37;;
13872;SDS011;7006;51.494;11.964;2024-03-06T13:24:51;27.07;;;19.67;;
13872;SDS011;7006;51.494;11.964;2024-03-06T13:27:19;24.87;;;20.00;;
13872;SDS011;7006;51.494;11.964;2024-03-06T13:29:47;26.40;;;19.80;;
13872;SDS011;7006;51.494;11.964;2024-03-06T13:32:17;24.73;;;19.97;;
13872;SDS011;7006;51.494;11.964;2024-03-06T13:34:48;25.50;;;20.37;;
13872;SDS011;7006;51.494;11.964;2024-03-06T13:37:16;24.93;;;19.03;;
13872;SDS011;7006;51.494;11.964;2024-03-06T13:39:42;22.97;;;18.50;;
13872;SDS011;7006;51.494;11.964;2024-03-06T13:42:10;22.00;;;17.53;;
13872;SDS011;7006;51.494;11.964;2024-03-06T13:44:39;19.80;;;17.30;;
13872;SDS011;7006;51.494;11.964;2024-03-06T13:47:07;24.30;;;18.40;;
13872;SDS011;7006;51.494;11.964;2024-03-06T13:49:37;24.27;;;18.00;;
13872;SDS011;7006;51.494;11.964;2024-03-06T13:52:09;25.70;;;18.30;;
13872;SDS011;7006;51.494;11.964;2024-03-06T13:54:41;25.20;;;18.77;;
13872;SDS011;7006;51.494;11.964;2024-03-06T13:57:10;25.00;;;17.30;;
13872;SDS011;7006;51.494;11.964;2024-03-06T13:59:38;24.93;;;18.23;;
13872;SDS011;7006;51.494;11.964;2024-03-06T14:02:05;24.07;;;18.30;;
13872;SDS011;7006;51.494;11.964;2024-03-06T14:04:34;24.10;;;18.40;;
13872;SDS011;7006;51.494;11.964;2024-03-06T14:07:02;23.90;;;17.50;;
13872;SDS011;7006;51.494;11.964;2024-03-06T14:09:33;23.23;;;18.30;;
13872;SDS011;7006;51.494;11.964;2024-03-06T14:12:02;20.03;;;16.80;;
13872;SDS011;7006;51.494;11.964;2024-03-06T14:14:30;19.70;;;16.43;;
13872;SDS011;7006;51.494;11.964;2024-03-06T14:16:59;24.67;;;14.70;;
13872;SDS011;7006;51.494;11.964;2024-03-06T14:19:27;22.20;;;14.80;;
13872;SDS011;7006;51.494;11.964;2024-03-06T14:21:55;17.77;;;14.30;;
13872;SDS011;7006;51.494;11.964;2024-03-06T14:24:23;17.60;;;13.73;;
13872;SDS011;7006;51.494;11.964;2024-03-06T14:26:54;17.83;;;13.97;;
13872;SDS011;7006;51.494;11.964;2024-03-06T14:29:22;16.20;;;14.10;;
13872;SDS011;7006;51.494;11.964;2024-03-06T14:31:52;17.60;;;14.53;;
13872;SDS011;7006;51.494;11.964;2024-03-06T14:34:20;17.53;;;14.10;;
13872;SDS011;7006;51.494;11.964;2024-03-06T14:36:49;19.37;;;13.47;;
13872;SDS011;7006;51.494;11.964;2024-03-06T14:39:17;22.70;;;13.80;;